createdAt,value
2019-01-17T00:01:32.608Z,4.30
2019-01-17T00:05:44.808Z,4.20
2019-01-17T00:09:47.847Z,4.20
2019-01-17T00:13:57.099Z,4.10
2019-01-17T00:18:12.136Z,4.10
2019-01-17T00:22:17.960Z,4.10
2019-01-17T00:26:24.372Z,4.10
2019-01-17T00:30:36.142Z,4.10
2019-01-17T00:34:49.201Z,4.20
2019-01-17T00:38:57.809Z,4.20
2019-01-17T00:43:00.622Z,4.20
2019-01-17T00:47:03.933Z,4.30
2019-01-17T00:51:18.904Z,4.30
2019-01-17T00:55:25.380Z,4.40
2019-01-17T00:59:37.242Z,4.50
2019-01-17T01:03:37.284Z,4.50
2019-01-17T01:07:53.509Z,4.50
2019-01-17T01:11:53.591Z,4.50
2019-01-17T01:16:13.161Z,4.50
2019-01-17T01:20:29.572Z,4.40
2019-01-17T01:24:41.821Z,4.40
2019-01-17T01:28:41.865Z,4.40
2019-01-17T01:32:50.743Z,4.40
2019-01-17T01:36:50.925Z,4.40
2019-01-17T01:40:59.891Z,4.40
2019-01-17T01:44:59.938Z,4.40
2019-01-17T01:48:59.965Z,4.40
2019-01-17T01:53:02.976Z,4.50
2019-01-17T01:57:06.913Z,4.50
2019-01-17T02:01:05.222Z,4.50
2019-01-17T02:05:06.550Z,4.50
2019-01-17T02:09:07.572Z,4.50
2019-01-17T02:13:05.986Z,4.50
2019-01-17T02:17:04.452Z,4.50
2019-01-17T02:21:03.260Z,4.50
2019-01-17T02:25:01.797Z,4.50
2019-01-17T02:29:00.202Z,4.50
2019-01-17T02:32:58.608Z,4.50
2019-01-17T02:36:57.004Z,4.50
2019-01-17T02:40:55.413Z,4.50
2019-01-17T02:44:55.454Z,4.50
2019-01-17T02:48:53.875Z,4.50
2019-01-17T02:52:54.969Z,4.50
2019-01-17T02:56:54.119Z,4.50
2019-01-17T03:00:52.505Z,4.50
2019-01-17T03:04:52.276Z,4.50
2019-01-17T03:08:50.967Z,4.50
2019-01-17T03:12:49.298Z,4.50
2019-01-17T03:16:48.057Z,4.50
2019-01-17T03:20:46.440Z,4.50
2019-01-17T03:24:53.718Z,4.50
2019-01-17T03:28:52.131Z,4.60
2019-01-17T03:32:50.520Z,4.60
2019-01-17T03:36:48.926Z,4.50
2019-01-17T03:40:47.345Z,4.50
2019-01-17T03:44:54.286Z,4.60
2019-01-17T03:48:52.693Z,4.50
2019-01-17T03:52:51.070Z,4.60
2019-01-17T03:56:50.830Z,4.60
2019-01-17T04:00:49.254Z,4.60
2019-01-17T04:04:47.632Z,4.60
2019-01-17T04:08:46.059Z,4.60
2019-01-17T04:12:44.462Z,4.60
2019-01-17T04:16:42.879Z,4.60
2019-01-17T04:20:41.302Z,4.60
2019-01-17T04:24:44.138Z,4.60
2019-01-17T04:28:44.178Z,4.60
2019-01-17T04:32:42.599Z,4.60
2019-01-17T04:36:40.980Z,4.60
2019-01-17T04:40:39.719Z,4.50
2019-01-17T04:44:39.743Z,4.50
2019-01-17T04:48:38.131Z,4.50
2019-01-17T04:52:36.562Z,4.50
2019-01-17T04:56:34.945Z,4.50
2019-01-17T05:00:33.385Z,4.40
2019-01-17T05:04:31.797Z,4.50
2019-01-17T05:08:30.193Z,4.40
2019-01-17T05:12:28.623Z,4.40
2019-01-17T05:16:27.005Z,4.40
2019-01-17T05:20:25.468Z,4.40
2019-01-17T05:24:23.883Z,4.40
2019-01-17T05:28:22.254Z,4.40
2019-01-17T05:32:20.765Z,4.40
2019-01-17T05:36:19.152Z,4.40
2019-01-17T05:40:19.284Z,4.40
2019-01-17T05:44:17.700Z,4.50
2019-01-17T05:48:16.084Z,4.40
2019-01-17T05:52:14.476Z,4.40
2019-01-17T05:56:13.096Z,4.30
2019-01-17T06:00:20.142Z,4.40
2019-01-17T06:04:21.326Z,4.40
2019-01-17T06:08:20.127Z,4.40
2019-01-17T06:12:18.899Z,4.30
2019-01-17T06:16:20.200Z,4.40
2019-01-17T06:20:18.617Z,4.40
2019-01-17T06:24:25.953Z,4.40
2019-01-17T06:28:24.631Z,4.30
2019-01-17T06:32:23.638Z,4.20
2019-01-17T06:36:38.412Z,4.10
2019-01-17T06:40:36.820Z,4.00
2019-01-17T06:44:35.214Z,3.90
2019-01-17T06:48:33.610Z,3.80
2019-01-17T06:52:34.285Z,3.60
2019-01-17T06:56:32.690Z,3.50
2019-01-17T07:00:31.700Z,3.60
2019-01-17T07:04:30.760Z,3.70
2019-01-17T07:08:32.480Z,3.70
2019-01-17T07:12:30.901Z,3.80
2019-01-17T07:16:29.542Z,3.80
2019-01-17T07:20:28.027Z,3.90
2019-01-17T07:24:34.056Z,3.90
2019-01-17T07:28:32.403Z,4.00
2019-01-17T07:32:30.858Z,4.10
2019-01-17T07:36:29.302Z,4.20
2019-01-17T07:40:27.698Z,4.20
2019-01-17T07:44:26.152Z,4.20
2019-01-17T07:48:24.685Z,4.20
2019-01-17T07:52:23.081Z,4.20
2019-01-17T07:56:21.540Z,4.10
2019-01-17T08:00:23.416Z,4.10
2019-01-17T08:04:30.675Z,4.10
2019-01-17T08:08:29.082Z,4.20
2019-01-17T08:12:27.607Z,4.20
2019-01-17T08:16:26.026Z,4.40
2019-01-17T08:20:24.582Z,4.40
2019-01-17T08:24:33.409Z,4.40
2019-01-17T08:28:32.098Z,4.40
2019-01-17T08:32:30.690Z,4.30
2019-01-17T08:36:29.192Z,4.20
2019-01-17T08:40:30.033Z,4.30
2019-01-17T08:44:28.462Z,4.30
2019-01-17T08:48:26.935Z,4.50
2019-01-17T08:52:25.302Z,4.70
2019-01-17T08:56:23.721Z,4.60
2019-01-17T09:00:24.746Z,4.50
2019-01-17T09:04:23.288Z,4.50
2019-01-17T09:08:21.755Z,4.60
2019-01-17T09:12:31.736Z,4.70
2019-01-17T09:16:30.176Z,4.80
2019-01-17T09:20:28.606Z,5.00
2019-01-17T09:24:26.984Z,5.10
2019-01-17T09:28:25.702Z,5.10
2019-01-17T09:32:24.191Z,5.10
2019-01-17T09:36:22.620Z,5.10
2019-01-17T09:40:22.796Z,5.20
2019-01-17T09:44:21.171Z,5.30
2019-01-17T09:48:19.610Z,5.40
2019-01-17T09:52:18.046Z,5.40
2019-01-17T09:56:18.190Z,5.40
2019-01-17T10:00:27.398Z,5.40
2019-01-17T10:04:26.716Z,5.30
2019-01-17T10:08:25.545Z,5.20
2019-01-17T10:12:24.229Z,5.30
2019-01-17T10:16:31.382Z,5.40
2019-01-17T10:20:56.862Z,5.30
2019-01-17T10:25:04.304Z,5.10
2019-01-17T10:29:31.435Z,5.00
2019-01-17T10:34:02.641Z,4.80
2019-01-17T10:38:06.441Z,4.90
2019-01-17T10:42:30.162Z,4.80
2019-01-17T10:46:40.671Z,4.80
2019-01-17T10:51:03.331Z,4.70
2019-01-17T10:55:26.026Z,4.60
2019-01-17T10:59:34.209Z,4.50
2019-01-17T11:03:51.667Z,4.40
2019-01-17T11:08:04.987Z,4.20
2019-01-17T11:12:18.616Z,3.90
2019-01-17T11:16:32.356Z,3.70
2019-01-17T11:20:55.074Z,3.60
2019-01-17T11:25:13.551Z,3.60
2019-01-17T11:29:15.265Z,3.60
2019-01-17T11:33:22.942Z,3.70
2019-01-17T11:37:52.121Z,3.70
2019-01-17T11:42:16.183Z,3.70
2019-01-17T11:46:29.746Z,3.70
2019-01-17T11:50:43.205Z,3.70
2019-01-17T11:54:56.635Z,3.60
2019-01-17T11:59:04.031Z,3.60
2019-01-17T12:03:14.561Z,3.70
2019-01-17T12:07:14.980Z,3.70
2019-01-17T12:11:13.373Z,3.70
2019-01-17T12:15:11.798Z,3.70
2019-01-17T12:19:10.191Z,3.70
2019-01-17T12:23:12.129Z,3.70
2019-01-17T12:27:13.640Z,3.70
2019-01-17T12:31:12.040Z,3.60
2019-01-17T12:35:10.922Z,3.50
2019-01-17T12:39:12.145Z,3.40
2019-01-17T12:43:10.660Z,3.50
2019-01-17T12:47:09.115Z,3.50
2019-01-17T12:51:07.710Z,3.50
2019-01-17T12:55:08.246Z,3.50
2019-01-17T12:59:06.710Z,3.50
2019-01-17T13:03:05.524Z,3.40
2019-01-17T13:07:05.189Z,3.40
2019-01-17T13:11:06.156Z,3.40
2019-01-17T13:15:07.762Z,3.40
2019-01-17T13:19:06.276Z,3.30
2019-01-17T13:23:08.708Z,3.20
2019-01-17T13:27:05.164Z,3.20
2019-01-17T13:31:03.599Z,3.20
2019-01-17T13:35:01.991Z,3.20
2019-01-17T13:39:00.538Z,3.10
2019-01-17T13:42:58.963Z,3.10
2019-01-17T13:47:16.547Z,3.00
2019-01-17T13:51:15.286Z,3.00
2019-01-17T13:55:16.219Z,3.00
2019-01-17T13:59:14.659Z,2.90
2019-01-17T14:03:13.239Z,2.90
2019-01-17T14:07:11.596Z,2.80
2019-01-17T14:11:10.013Z,2.90
2019-01-17T14:15:27.106Z,3.00
2019-01-17T14:19:25.595Z,3.10
2019-01-17T14:23:24.033Z,3.10
2019-01-17T14:27:22.419Z,3.10
2019-01-17T14:31:21.160Z,3.10
2019-01-17T14:35:20.545Z,3.10
2019-01-17T14:39:18.922Z,3.00
2019-01-17T14:43:19.624Z,3.00
2019-01-17T14:47:18.042Z,2.90
2019-01-17T14:51:18.624Z,2.90
2019-01-17T14:55:17.044Z,2.70
2019-01-17T14:59:15.551Z,2.60
2019-01-17T15:03:17.845Z,2.60
2019-01-17T15:07:18.219Z,2.60
2019-01-17T15:11:16.638Z,2.60
2019-01-17T15:15:15.025Z,2.60
2019-01-17T15:19:13.509Z,2.70
2019-01-17T15:23:17.686Z,2.70
2019-01-17T15:27:16.061Z,2.50
2019-01-17T15:31:15.062Z,2.20
2019-01-17T15:35:13.486Z,2.00
2019-01-17T15:39:11.900Z,2.00
2019-01-17T15:43:10.372Z,1.80
2019-01-17T15:47:13.119Z,1.80
2019-01-17T15:51:08.860Z,1.70
2019-01-17T15:55:10.827Z,1.70
2019-01-17T15:59:09.313Z,1.70
2019-01-17T16:03:07.820Z,1.70
2019-01-17T16:07:06.224Z,1.70
2019-01-17T16:11:04.636Z,1.60
2019-01-17T16:15:05.233Z,1.60
2019-01-17T16:19:03.642Z,1.60
2019-01-17T16:23:02.022Z,1.60
2019-01-17T16:27:00.452Z,1.70
2019-01-17T16:30:58.838Z,1.60
2019-01-17T16:34:57.317Z,1.60
2019-01-17T16:38:55.724Z,1.40
2019-01-17T16:42:54.113Z,1.30
2019-01-17T16:46:55.418Z,1.20
2019-01-17T16:50:53.819Z,1.20
2019-01-17T16:54:52.219Z,1.00
2019-01-17T16:58:50.654Z,1.10
2019-01-17T17:02:49.016Z,1.30
2019-01-17T17:06:47.456Z,1.30
2019-01-17T17:10:45.946Z,1.40
2019-01-17T17:14:44.330Z,1.50
2019-01-17T17:18:43.001Z,1.50
2019-01-17T17:22:41.589Z,1.50
2019-01-17T17:26:43.908Z,1.50
2019-01-17T17:30:42.506Z,1.60
2019-01-17T17:34:40.887Z,1.70
2019-01-17T17:38:39.455Z,1.80
2019-01-17T17:42:37.883Z,1.70
2019-01-17T17:46:36.355Z,1.60
2019-01-17T17:50:34.930Z,1.40
2019-01-17T17:54:34.318Z,1.40
2019-01-17T17:58:32.752Z,1.30
2019-01-17T18:02:32.425Z,1.40
2019-01-17T18:06:30.885Z,1.40
2019-01-17T18:10:29.938Z,1.40
2019-01-17T18:14:28.350Z,1.50
2019-01-17T18:18:26.759Z,1.60
2019-01-17T18:22:25.187Z,1.60
2019-01-17T18:26:23.577Z,1.60
2019-01-17T18:30:24.959Z,1.60
2019-01-17T18:34:23.394Z,1.60
2019-01-17T18:38:27.794Z,1.60
2019-01-17T18:42:26.583Z,1.60
2019-01-17T18:46:24.980Z,1.60
2019-01-17T18:50:26.795Z,1.60
2019-01-17T18:54:27.073Z,1.60
2019-01-17T18:58:25.410Z,1.60
2019-01-17T19:02:24.150Z,1.60
2019-01-17T19:06:22.556Z,1.60
2019-01-17T19:10:21.818Z,1.60
2019-01-17T19:14:20.264Z,1.60
2019-01-17T19:18:18.698Z,1.60
2019-01-17T19:22:17.091Z,1.60
2019-01-17T19:26:15.592Z,1.60
2019-01-17T19:30:20.176Z,1.40
2019-01-17T19:34:18.770Z,1.30
2019-01-17T19:38:17.147Z,1.30
2019-01-17T19:42:15.586Z,1.10
2019-01-17T19:46:15.608Z,1.00
2019-01-17T19:50:18.312Z,1.00
2019-01-17T19:54:16.787Z,1.10
2019-01-17T19:58:15.215Z,1.20
2019-01-17T20:02:13.654Z,1.30
2019-01-17T20:06:12.085Z,1.30
2019-01-17T20:10:14.935Z,1.20
2019-01-17T20:14:13.492Z,1.30
2019-01-17T20:18:11.924Z,1.30
2019-01-17T20:22:10.364Z,1.40
2019-01-17T20:26:08.848Z,1.40
2019-01-17T20:30:28.274Z,1.40
2019-01-17T20:34:26.707Z,1.40
2019-01-17T20:38:25.178Z,1.40
2019-01-17T20:42:26.712Z,1.50
2019-01-17T20:46:25.314Z,1.40
2019-01-17T20:50:27.798Z,1.40
2019-01-17T20:54:26.156Z,1.40
2019-01-17T20:58:24.575Z,1.30
2019-01-17T21:02:23.490Z,1.20
2019-01-17T21:06:21.907Z,1.20
2019-01-17T21:10:20.337Z,1.20
2019-01-17T21:14:18.795Z,1.20
2019-01-17T21:18:17.218Z,1.20
2019-01-17T21:22:23.804Z,1.20
2019-01-17T21:26:22.168Z,1.20
2019-01-17T21:30:27.151Z,1.10
2019-01-17T21:34:28.672Z,1.00
2019-01-17T21:38:27.977Z,0.90
2019-01-17T21:42:26.382Z,0.70
2019-01-17T21:46:24.863Z,0.50
2019-01-17T21:50:29.209Z,0.40
2019-01-17T21:54:27.634Z,0.30
2019-01-17T21:58:26.035Z,0.30
2019-01-17T22:02:24.465Z,0.10
2019-01-17T22:06:24.822Z,0.20
2019-01-17T22:10:23.244Z,0.20
2019-01-17T22:14:21.635Z,0.30
2019-01-17T22:18:22.920Z,0.40
2019-01-17T22:22:21.349Z,0.40
2019-01-17T22:26:21.798Z,0.50
2019-01-17T22:30:29.421Z,0.60
2019-01-17T22:34:27.856Z,0.60
2019-01-17T22:38:26.283Z,0.50
2019-01-17T22:42:24.706Z,0.50
2019-01-17T22:46:29.056Z,0.60
2019-01-17T22:50:27.480Z,0.60
2019-01-17T22:54:25.907Z,0.60
2019-01-17T22:58:24.576Z,0.60
2019-01-17T23:02:23.022Z,0.60
2019-01-17T23:06:21.460Z,0.60
2019-01-17T23:10:19.872Z,0.60
2019-01-17T23:14:18.290Z,0.60
2019-01-17T23:18:16.719Z,0.60
2019-01-17T23:22:15.148Z,0.60
2019-01-17T23:26:15.204Z,0.60
2019-01-17T23:30:15.600Z,0.60
2019-01-17T23:34:14.228Z,0.60
2019-01-17T23:38:15.590Z,0.50
2019-01-17T23:42:14.025Z,0.50
2019-01-17T23:46:12.470Z,0.60
2019-01-17T23:50:12.535Z,0.60
2019-01-17T23:54:10.942Z,0.60
2019-01-17T23:58:09.379Z,0.60
